createdAt,value
2019-03-27T00:01:40.221Z,102052.00
2019-03-27T00:04:12.658Z,102051.00
2019-03-27T00:06:44.962Z,102047.00
2019-03-27T00:09:17.397Z,102049.00
2019-03-27T00:11:50.264Z,102049.00
2019-03-27T00:14:22.689Z,102043.00
2019-03-27T00:16:55.249Z,102047.00
2019-03-27T00:19:27.617Z,102045.00
2019-03-27T00:22:00.226Z,102046.00
2019-03-27T00:24:32.431Z,102041.00
2019-03-27T00:27:04.875Z,102048.00
2019-03-27T00:29:37.244Z,102050.00
2019-03-27T00:32:09.835Z,102044.00
2019-03-27T00:34:42.206Z,102048.00
2019-03-27T00:37:14.508Z,102055.00
2019-03-27T00:39:46.850Z,102056.00
2019-03-27T00:42:20.609Z,102047.00
2019-03-27T00:44:53.108Z,102050.00
2019-03-27T00:47:25.442Z,102028.00
2019-03-27T00:49:57.832Z,102039.00
2019-03-27T00:52:30.197Z,102027.00
2019-03-27T00:55:02.549Z,102024.00
2019-03-27T00:57:35.053Z,102036.00
2019-03-27T01:00:12.615Z,102033.00
2019-03-27T01:02:44.921Z,102041.00
2019-03-27T01:05:17.284Z,102035.00
2019-03-27T01:07:49.536Z,102015.00
2019-03-27T01:10:21.800Z,102019.00
2019-03-27T01:12:54.191Z,102015.00
2019-03-27T01:15:39.203Z,102016.00
2019-03-27T01:18:00.747Z,102020.00
2019-03-27T01:20:33.129Z,102017.00
2019-03-27T01:23:05.607Z,102032.00
2019-03-27T01:25:37.921Z,102025.00
2019-03-27T01:28:10.243Z,102019.00
2019-03-27T01:30:42.465Z,102019.00
2019-03-27T01:33:14.823Z,102018.00
2019-03-27T01:35:47.227Z,102026.00
2019-03-27T01:38:19.639Z,102026.00
2019-03-27T01:40:52.073Z,102014.00
2019-03-27T01:43:24.343Z,102016.00
2019-03-27T01:45:56.602Z,102017.00
2019-03-27T01:48:28.886Z,102015.00
2019-03-27T01:51:01.195Z,102014.00
2019-03-27T01:53:33.670Z,102012.00
2019-03-27T01:56:06.076Z,102004.00
2019-03-27T01:58:41.664Z,102018.00
2019-03-27T02:01:14.003Z,102017.00
2019-03-27T02:03:46.379Z,102017.00
2019-03-27T02:06:21.244Z,102026.00
2019-03-27T02:08:53.573Z,102028.00
2019-03-27T02:11:26.203Z,102018.00
2019-03-27T02:13:58.715Z,102014.00
2019-03-27T02:16:32.609Z,102011.00
2019-03-27T02:19:04.865Z,102014.00
2019-03-27T02:21:38.263Z,102014.00
2019-03-27T02:24:10.537Z,102014.00
2019-03-27T02:26:42.945Z,102027.00
2019-03-27T02:29:15.367Z,102018.00
2019-03-27T02:31:50.671Z,102014.00
2019-03-27T02:34:23.000Z,102009.00
2019-03-27T02:36:55.328Z,102021.00
2019-03-27T02:39:27.607Z,102020.00
2019-03-27T02:41:59.965Z,102024.00
2019-03-27T02:44:32.414Z,102032.00
2019-03-27T02:47:04.664Z,102025.00
2019-03-27T02:49:37.065Z,102027.00
2019-03-27T02:52:09.349Z,102019.00
2019-03-27T02:54:44.895Z,102012.00
2019-03-27T02:57:17.227Z,102008.00
2019-03-27T02:59:50.584Z,102018.00
2019-03-27T03:02:22.982Z,102018.00
2019-03-27T03:04:55.297Z,102023.00
2019-03-27T03:07:27.620Z,102022.00
2019-03-27T03:09:59.959Z,102018.00
2019-03-27T03:12:32.379Z,102015.00
2019-03-27T03:15:05.454Z,102015.00
2019-03-27T03:17:37.947Z,102011.00
2019-03-27T03:20:14.748Z,102003.00
2019-03-27T03:22:46.987Z,102013.00
2019-03-27T03:25:20.152Z,102006.00
2019-03-27T03:27:52.420Z,102011.00
2019-03-27T03:30:24.836Z,102021.00
2019-03-27T03:32:57.207Z,102010.00
2019-03-27T03:35:29.553Z,102036.00
2019-03-27T03:38:04.839Z,102019.00
2019-03-27T03:40:39.101Z,102013.00
2019-03-27T03:43:11.394Z,102025.00
2019-03-27T03:45:43.874Z,102025.00
2019-03-27T03:48:16.102Z,102020.00
2019-03-27T03:50:48.422Z,102022.00
2019-03-27T03:53:20.871Z,102022.00
2019-03-27T03:55:54.955Z,102014.00
2019-03-27T03:58:29.515Z,102015.00
2019-03-27T04:01:03.081Z,102020.00
2019-03-27T04:03:39.546Z,102027.00
2019-03-27T04:06:12.054Z,102025.00
2019-03-27T04:08:44.473Z,102028.00
2019-03-27T04:11:16.883Z,102027.00
2019-03-27T04:13:49.113Z,102027.00
2019-03-27T04:16:22.455Z,102035.00
2019-03-27T04:18:55.123Z,102039.00
2019-03-27T04:21:27.561Z,102042.00
2019-03-27T04:24:00.109Z,102046.00
2019-03-27T04:26:33.621Z,102042.00
2019-03-27T04:29:06.225Z,102051.00
2019-03-27T04:31:45.709Z,102046.00
2019-03-27T04:34:19.046Z,102041.00
2019-03-27T04:36:51.404Z,102046.00
2019-03-27T04:39:23.804Z,102044.00
2019-03-27T04:41:56.070Z,102053.00
2019-03-27T04:44:28.423Z,102055.00
2019-03-27T04:47:01.025Z,102046.00
2019-03-27T04:49:33.276Z,102049.00
2019-03-27T04:52:05.646Z,102052.00
2019-03-27T04:54:37.958Z,102048.00
2019-03-27T04:57:11.961Z,102062.00
2019-03-27T04:59:44.414Z,102060.00
2019-03-27T05:02:16.765Z,102067.00
2019-03-27T05:04:49.384Z,102076.00
2019-03-27T05:07:21.767Z,102070.00
2019-03-27T05:09:56.208Z,102073.00
2019-03-27T05:12:28.677Z,102073.00
2019-03-27T05:15:01.109Z,102074.00
2019-03-27T05:17:45.153Z,102067.00
2019-03-27T05:20:09.798Z,102068.00
2019-03-27T05:22:42.069Z,102067.00
2019-03-27T05:25:14.486Z,102067.00
2019-03-27T05:27:50.149Z,102069.00
2019-03-27T05:30:30.267Z,102074.00
2019-03-27T05:33:02.628Z,102082.00
2019-03-27T05:35:34.875Z,102084.00
2019-03-27T05:38:07.164Z,102080.00
2019-03-27T05:40:39.516Z,102087.00
2019-03-27T05:43:12.058Z,102084.00
2019-03-27T05:45:44.323Z,102078.00
2019-03-27T05:48:16.710Z,102083.00
2019-03-27T05:50:48.972Z,102079.00
2019-03-27T05:53:21.272Z,102081.00
2019-03-27T05:55:53.488Z,102079.00
2019-03-27T05:58:25.760Z,102081.00
2019-03-27T06:00:58.107Z,102076.00
2019-03-27T06:03:30.473Z,102089.00
2019-03-27T06:06:03.792Z,102084.00
2019-03-27T06:08:36.155Z,102084.00
2019-03-27T06:11:08.493Z,102076.00
2019-03-27T06:13:40.870Z,102086.00
2019-03-27T06:16:13.341Z,102080.00
2019-03-27T06:18:48.025Z,102073.00
2019-03-27T06:21:20.432Z,102083.00
2019-03-27T06:23:54.092Z,102075.00
2019-03-27T06:26:26.512Z,102077.00
2019-03-27T06:29:01.077Z,102084.00
2019-03-27T06:31:33.441Z,102085.00
2019-03-27T06:34:05.911Z,102086.00
2019-03-27T06:36:38.357Z,102084.00
2019-03-27T06:39:10.618Z,102082.00
2019-03-27T06:41:42.937Z,102082.00
2019-03-27T06:44:15.297Z,102078.00
2019-03-27T06:46:47.711Z,102077.00
2019-03-27T06:49:20.090Z,102080.00
2019-03-27T06:51:52.551Z,102081.00
2019-03-27T06:54:24.854Z,102067.00
2019-03-27T06:57:01.298Z,102080.00
2019-03-27T06:59:33.857Z,102079.00
2019-03-27T07:02:06.198Z,102080.00
2019-03-27T07:04:38.589Z,102078.00
2019-03-27T07:07:10.884Z,102077.00
2019-03-27T07:09:43.104Z,102077.00
2019-03-27T07:12:21.047Z,102069.00
2019-03-27T07:14:49.426Z,102071.00
2019-03-27T07:17:21.696Z,102080.00
2019-03-27T07:19:54.082Z,102084.00
2019-03-27T07:22:26.321Z,102084.00
2019-03-27T07:24:58.683Z,102087.00
2019-03-27T07:27:31.090Z,102087.00
2019-03-27T07:30:03.463Z,102088.00
2019-03-27T07:32:37.532Z,102099.00
2019-03-27T07:35:10.365Z,102097.00
2019-03-27T07:37:42.705Z,102096.00
2019-03-27T07:40:16.239Z,102095.00
2019-03-27T07:42:50.670Z,102100.00
2019-03-27T07:45:23.122Z,102101.00
2019-03-27T07:47:55.827Z,102101.00
2019-03-27T07:50:28.419Z,102100.00
2019-03-27T07:53:01.285Z,102117.00
2019-03-27T07:55:33.737Z,102115.00
2019-03-27T07:58:06.052Z,102117.00
2019-03-27T08:00:38.359Z,102114.00
2019-03-27T08:03:10.752Z,102116.00
2019-03-27T08:05:43.409Z,102109.00
2019-03-27T08:08:15.631Z,102117.00
2019-03-27T08:10:48.043Z,102116.00
2019-03-27T08:13:20.573Z,102112.00
2019-03-27T08:15:52.945Z,102107.00
2019-03-27T08:18:25.453Z,102108.00
2019-03-27T08:20:59.621Z,102108.00
2019-03-27T08:23:32.045Z,102113.00
2019-03-27T08:26:04.281Z,102106.00
2019-03-27T08:28:36.663Z,102089.00
2019-03-27T08:31:09.308Z,102111.00
2019-03-27T08:33:41.759Z,102109.00
2019-03-27T08:36:14.130Z,102102.00
2019-03-27T08:38:46.538Z,102111.00
2019-03-27T08:41:18.927Z,102108.00
2019-03-27T08:43:51.353Z,102113.00
2019-03-27T08:46:24.905Z,102112.00
2019-03-27T08:48:57.299Z,102118.00
2019-03-27T08:51:29.658Z,102119.00
2019-03-27T08:54:02.015Z,102125.00
2019-03-27T08:56:34.355Z,102132.00
2019-03-27T08:59:06.674Z,102128.00
2019-03-27T09:01:39.173Z,102143.00
2019-03-27T09:04:11.492Z,102137.00
2019-03-27T09:06:43.779Z,102134.00
2019-03-27T09:09:16.201Z,102146.00
2019-03-27T09:11:48.541Z,102150.00
2019-03-27T09:14:20.850Z,102140.00
2019-03-27T09:16:53.303Z,102148.00
2019-03-27T09:19:35.607Z,102141.00
2019-03-27T09:22:01.241Z,102146.00
2019-03-27T09:24:33.502Z,102148.00
2019-03-27T09:27:05.969Z,102148.00
2019-03-27T09:29:38.450Z,102148.00
2019-03-27T09:32:10.972Z,102153.00
2019-03-27T09:34:43.752Z,102145.00
2019-03-27T09:37:16.017Z,102154.00
2019-03-27T09:39:50.098Z,102158.00
2019-03-27T09:42:22.533Z,102160.00
2019-03-27T09:44:55.856Z,102149.00
2019-03-27T09:47:28.138Z,102145.00
2019-03-27T09:50:00.818Z,102153.00
2019-03-27T09:52:33.658Z,102155.00
2019-03-27T09:55:06.557Z,102145.00
2019-03-27T09:57:38.824Z,102145.00
2019-03-27T10:00:11.938Z,102149.00
2019-03-27T10:02:44.426Z,102155.00
2019-03-27T10:05:16.834Z,102151.00
2019-03-27T10:07:49.459Z,102147.00
2019-03-27T10:10:21.784Z,102151.00
2019-03-27T10:12:54.263Z,102159.00
2019-03-27T10:15:26.790Z,102158.00
2019-03-27T10:17:59.194Z,102151.00
2019-03-27T10:20:31.574Z,102149.00
2019-03-27T10:23:03.812Z,102154.00
2019-03-27T10:25:36.274Z,102143.00
2019-03-27T10:28:08.663Z,102146.00
2019-03-27T10:30:42.290Z,102143.00
2019-03-27T10:33:15.349Z,102139.00
2019-03-27T10:35:48.218Z,102143.00
2019-03-27T10:38:20.631Z,102138.00
2019-03-27T10:40:53.377Z,102134.00
2019-03-27T10:43:25.750Z,102141.00
2019-03-27T10:45:58.156Z,102135.00
2019-03-27T10:48:30.788Z,102157.00
2019-03-27T10:51:04.571Z,102157.00
2019-03-27T10:53:36.930Z,102148.00
2019-03-27T10:56:09.402Z,102152.00
2019-03-27T10:58:42.049Z,102164.00
2019-03-27T11:01:14.422Z,102121.00
2019-03-27T11:03:47.004Z,102160.00
2019-03-27T11:06:19.408Z,102162.00
2019-03-27T11:08:51.735Z,102166.00
2019-03-27T11:11:24.006Z,102171.00
2019-03-27T11:13:57.326Z,102171.00
2019-03-27T11:16:29.662Z,102178.00
2019-03-27T11:19:02.063Z,102174.00
2019-03-27T11:21:34.454Z,102166.00
2019-03-27T11:24:06.830Z,102166.00
2019-03-27T11:26:39.219Z,102174.00
2019-03-27T11:29:17.300Z,102178.00
2019-03-27T11:31:49.770Z,102176.00
2019-03-27T11:34:22.186Z,102180.00
2019-03-27T11:36:54.584Z,102168.00
2019-03-27T11:39:27.133Z,102173.00
2019-03-27T11:42:00.938Z,102164.00
2019-03-27T11:44:33.441Z,102168.00
2019-03-27T11:47:05.862Z,102171.00
2019-03-27T11:49:38.166Z,102166.00
2019-03-27T11:52:10.715Z,102165.00
2019-03-27T11:54:43.020Z,102164.00
2019-03-27T11:57:15.284Z,102164.00
2019-03-27T11:59:53.971Z,102161.00
2019-03-27T12:02:21.980Z,102154.00
2019-03-27T12:04:54.399Z,102159.00
2019-03-27T12:07:26.897Z,102164.00
2019-03-27T12:09:59.325Z,102161.00
2019-03-27T12:12:31.689Z,102164.00
2019-03-27T12:15:04.484Z,102159.00
2019-03-27T12:17:36.749Z,102167.00
2019-03-27T12:20:10.432Z,102166.00
2019-03-27T12:22:42.889Z,102165.00
2019-03-27T12:25:15.204Z,102167.00
2019-03-27T12:27:47.575Z,102170.00
2019-03-27T12:30:20.038Z,102169.00
2019-03-27T12:32:52.326Z,102168.00
2019-03-27T12:35:24.631Z,102174.00
2019-03-27T12:37:57.144Z,102169.00
2019-03-27T12:40:29.410Z,102167.00
2019-03-27T12:43:01.746Z,102166.00
2019-03-27T12:45:34.172Z,102164.00
2019-03-27T12:48:07.117Z,102181.00
2019-03-27T12:50:39.867Z,102179.00
2019-03-27T12:53:12.131Z,102171.00
2019-03-27T12:55:44.495Z,102177.00
2019-03-27T12:58:16.840Z,102184.00
2019-03-27T13:00:49.481Z,102178.00
2019-03-27T13:03:21.881Z,102187.00
2019-03-27T13:05:54.471Z,102178.00
2019-03-27T13:08:26.886Z,102177.00
2019-03-27T13:10:59.374Z,102183.00
2019-03-27T13:13:31.656Z,102178.00
2019-03-27T13:16:04.089Z,102177.00
2019-03-27T13:18:36.309Z,102177.00
2019-03-27T13:21:08.686Z,102185.00
2019-03-27T13:23:41.191Z,102182.00
2019-03-27T13:26:13.447Z,102178.00
2019-03-27T13:28:49.151Z,102190.00
2019-03-27T13:31:20.044Z,102188.00
2019-03-27T13:33:52.686Z,102176.00
2019-03-27T13:36:34.700Z,102174.00
2019-03-27T13:39:09.209Z,102172.00
2019-03-27T13:41:41.954Z,102181.00
2019-03-27T13:44:14.259Z,102184.00
2019-03-27T13:46:46.648Z,102183.00
2019-03-27T13:49:19.075Z,102177.00
2019-03-27T13:51:51.530Z,102183.00
2019-03-27T13:54:23.750Z,102177.00
2019-03-27T13:56:56.123Z,102193.00
2019-03-27T13:59:28.395Z,102183.00
2019-03-27T14:02:00.767Z,102184.00
2019-03-27T14:04:33.283Z,102192.00
2019-03-27T14:07:06.052Z,102180.00
2019-03-27T14:09:41.677Z,102189.00
2019-03-27T14:12:14.006Z,102186.00
2019-03-27T14:14:50.579Z,102175.00
2019-03-27T14:17:20.716Z,102180.00
2019-03-27T14:19:53.087Z,102180.00
2019-03-27T14:22:26.335Z,102177.00
2019-03-27T14:24:59.650Z,102181.00
2019-03-27T14:27:31.992Z,102188.00
2019-03-27T14:30:04.914Z,102176.00
2019-03-27T14:32:37.222Z,102182.00
2019-03-27T14:35:09.984Z,102180.00
2019-03-27T14:37:42.411Z,102170.00
2019-03-27T14:40:15.234Z,102173.00
2019-03-27T14:42:47.606Z,102182.00
2019-03-27T14:45:20.981Z,102175.00
2019-03-27T14:47:53.393Z,102177.00
2019-03-27T14:50:32.095Z,102170.00
2019-03-27T14:53:04.644Z,102175.00
2019-03-27T14:55:37.333Z,102174.00
2019-03-27T14:58:09.808Z,102178.00
2019-03-27T15:00:42.336Z,102182.00
2019-03-27T15:03:14.760Z,102184.00
2019-03-27T15:05:47.313Z,102178.00
2019-03-27T15:08:20.726Z,102191.00
2019-03-27T15:10:53.980Z,102189.00
2019-03-27T15:13:26.536Z,102182.00
2019-03-27T15:15:59.099Z,102185.00
2019-03-27T15:18:31.378Z,102184.00
2019-03-27T15:21:03.687Z,102185.00
2019-03-27T15:23:35.973Z,102188.00
2019-03-27T15:26:08.528Z,102191.00
2019-03-27T15:28:41.002Z,102182.00
2019-03-27T15:31:20.273Z,102177.00
2019-03-27T15:33:47.539Z,102186.00
2019-03-27T15:36:20.070Z,102191.00
2019-03-27T15:38:52.566Z,102187.00
2019-03-27T15:41:25.380Z,102183.00
2019-03-27T15:43:57.899Z,102179.00
2019-03-27T15:46:30.290Z,102193.00
2019-03-27T15:49:02.752Z,102187.00
2019-03-27T15:51:35.334Z,102186.00
2019-03-27T15:54:07.856Z,102185.00
2019-03-27T15:56:40.339Z,102191.00
2019-03-27T15:59:12.790Z,102191.00
2019-03-27T16:01:45.099Z,102192.00
2019-03-27T16:04:17.468Z,102194.00
2019-03-27T16:06:49.902Z,102193.00
2019-03-27T16:09:22.781Z,102196.00
2019-03-27T16:11:55.204Z,102190.00
2019-03-27T16:14:29.820Z,102204.00
2019-03-27T16:17:13.263Z,102206.00
2019-03-27T16:19:38.699Z,102206.00
2019-03-27T16:22:11.239Z,102200.00
2019-03-27T16:24:43.490Z,102200.00
2019-03-27T16:27:15.933Z,102206.00
2019-03-27T16:29:48.244Z,102198.00
2019-03-27T16:32:21.036Z,102206.00
2019-03-27T16:34:53.358Z,102207.00
2019-03-27T16:37:25.881Z,102194.00
2019-03-27T16:39:58.256Z,102209.00
2019-03-27T16:42:30.491Z,102206.00
2019-03-27T16:45:02.770Z,102202.00
2019-03-27T16:47:36.202Z,102213.00
2019-03-27T16:50:09.796Z,102206.00
2019-03-27T16:52:42.129Z,102202.00
2019-03-27T16:55:14.698Z,102211.00
2019-03-27T16:57:47.068Z,102201.00
2019-03-27T17:00:19.566Z,102199.00
2019-03-27T17:02:51.959Z,102210.00
2019-03-27T17:05:24.553Z,102200.00
2019-03-27T17:07:57.118Z,102208.00
2019-03-27T17:10:29.570Z,102213.00
2019-03-27T17:13:02.100Z,102210.00
2019-03-27T17:15:34.469Z,102224.00
2019-03-27T17:18:07.076Z,102211.00
2019-03-27T17:20:39.618Z,102214.00
2019-03-27T17:23:17.899Z,102211.00
2019-03-27T17:25:46.197Z,102224.00
2019-03-27T17:28:18.554Z,102212.00
2019-03-27T17:30:50.902Z,102215.00
2019-03-27T17:33:23.477Z,102219.00
2019-03-27T17:35:55.951Z,102229.00
2019-03-27T17:38:28.443Z,102230.00
2019-03-27T17:41:00.839Z,102233.00
2019-03-27T17:43:33.161Z,102227.00
2019-03-27T17:46:05.518Z,102233.00
2019-03-27T17:48:37.916Z,102231.00
2019-03-27T17:51:10.464Z,102230.00
2019-03-27T17:53:43.189Z,102226.00
2019-03-27T17:56:15.580Z,102243.00
2019-03-27T17:58:47.952Z,102240.00
2019-03-27T18:01:20.580Z,102241.00
2019-03-27T18:03:52.926Z,102251.00
2019-03-27T18:06:25.606Z,102256.00
2019-03-27T18:08:57.914Z,102256.00
2019-03-27T18:11:30.460Z,102255.00
2019-03-27T18:14:02.991Z,102263.00
2019-03-27T18:16:35.317Z,102262.00
2019-03-27T18:19:07.818Z,102274.00
2019-03-27T18:21:40.250Z,102274.00
2019-03-27T18:24:12.584Z,102267.00
2019-03-27T18:26:45.020Z,102272.00
2019-03-27T18:29:17.487Z,102265.00
2019-03-27T18:31:49.946Z,102271.00
2019-03-27T18:34:24.491Z,102269.00
2019-03-27T18:36:56.953Z,102264.00
2019-03-27T18:39:29.318Z,102250.00
2019-03-27T18:42:01.720Z,102271.00
2019-03-27T18:44:34.159Z,102271.00
2019-03-27T18:47:06.514Z,102271.00
2019-03-27T18:49:39.981Z,102278.00
2019-03-27T18:52:12.570Z,102273.00
2019-03-27T18:54:44.908Z,102266.00
2019-03-27T18:57:17.429Z,102265.00
2019-03-27T18:59:49.803Z,102269.00
2019-03-27T19:02:22.225Z,102272.00
2019-03-27T19:04:54.737Z,102273.00
2019-03-27T19:07:27.192Z,102270.00
2019-03-27T19:09:59.567Z,102278.00
2019-03-27T19:12:32.014Z,102272.00
2019-03-27T19:15:05.134Z,102279.00
2019-03-27T19:17:37.528Z,102281.00
2019-03-27T19:20:10.635Z,102278.00
2019-03-27T19:22:43.356Z,102280.00
2019-03-27T19:25:15.774Z,102272.00
2019-03-27T19:27:48.313Z,102273.00
2019-03-27T19:30:21.630Z,102281.00
2019-03-27T19:32:55.778Z,102279.00
2019-03-27T19:35:28.255Z,102278.00
2019-03-27T19:38:00.695Z,102290.00
2019-03-27T19:40:33.035Z,102282.00
2019-03-27T19:43:05.729Z,102265.00
2019-03-27T19:45:38.248Z,102294.00
2019-03-27T19:48:11.011Z,102300.00
2019-03-27T19:50:44.391Z,102290.00
2019-03-27T19:53:16.718Z,102286.00
2019-03-27T19:55:49.059Z,102282.00
2019-03-27T19:58:21.463Z,102291.00
2019-03-27T20:00:53.860Z,102288.00
2019-03-27T20:03:26.275Z,102298.00
2019-03-27T20:05:58.777Z,102303.00
2019-03-27T20:08:31.221Z,102298.00
2019-03-27T20:11:03.504Z,102303.00
2019-03-27T20:13:35.929Z,102294.00
2019-03-27T20:16:08.508Z,102297.00
2019-03-27T20:18:43.608Z,102286.00
2019-03-27T20:21:15.983Z,102290.00
2019-03-27T20:23:49.770Z,102288.00
2019-03-27T20:26:22.125Z,102286.00
2019-03-27T20:28:54.589Z,102287.00
2019-03-27T20:31:28.065Z,102292.00
2019-03-27T20:34:01.739Z,102289.00
2019-03-27T20:36:34.270Z,102298.00
2019-03-27T20:39:09.685Z,102291.00
2019-03-27T20:41:42.330Z,102308.00
2019-03-27T20:44:14.923Z,102288.00
2019-03-27T20:46:47.500Z,102281.00
2019-03-27T20:49:19.938Z,102295.00
2019-03-27T20:51:54.933Z,102292.00
2019-03-27T20:54:26.535Z,102289.00
2019-03-27T20:56:59.049Z,102295.00
2019-03-27T20:59:31.853Z,102289.00
2019-03-27T21:02:04.391Z,102286.00
2019-03-27T21:04:36.973Z,102278.00
2019-03-27T21:07:10.414Z,102277.00
2019-03-27T21:09:43.033Z,102279.00
2019-03-27T21:12:15.589Z,102282.00
2019-03-27T21:14:48.005Z,102289.00
2019-03-27T21:17:21.155Z,102287.00
2019-03-27T21:19:53.457Z,102280.00
2019-03-27T21:22:26.030Z,102280.00
2019-03-27T21:25:08.671Z,102281.00
2019-03-27T21:27:32.525Z,102289.00
2019-03-27T21:30:05.963Z,102281.00
2019-03-27T21:32:38.546Z,102280.00
2019-03-27T21:35:10.938Z,102291.00
2019-03-27T21:37:44.196Z,102285.00
2019-03-27T21:40:16.821Z,102286.00
2019-03-27T21:42:49.300Z,102293.00
2019-03-27T21:45:21.672Z,102298.00
2019-03-27T21:47:54.038Z,102300.00
2019-03-27T21:50:26.431Z,102303.00
2019-03-27T21:53:00.744Z,102301.00
2019-03-27T21:55:42.793Z,102311.00
2019-03-27T21:58:07.112Z,102307.00
2019-03-27T22:00:40.906Z,102313.00
2019-03-27T22:03:13.192Z,102314.00
2019-03-27T22:05:45.696Z,102312.00
2019-03-27T22:08:18.092Z,102315.00
2019-03-27T22:10:50.420Z,102317.00
2019-03-27T22:13:22.982Z,102307.00
2019-03-27T22:15:56.495Z,102320.00
2019-03-27T22:18:28.792Z,102324.00
2019-03-27T22:21:01.151Z,102332.00
2019-03-27T22:23:33.485Z,102329.00
2019-03-27T22:26:06.082Z,102329.00
2019-03-27T22:28:38.330Z,102328.00
2019-03-27T22:31:10.742Z,102333.00
2019-03-27T22:33:44.214Z,102333.00
2019-03-27T22:36:16.854Z,102335.00
2019-03-27T22:38:49.194Z,102337.00
2019-03-27T22:41:21.530Z,102335.00
2019-03-27T22:43:53.902Z,102335.00
2019-03-27T22:46:26.455Z,102333.00
2019-03-27T22:48:58.740Z,102337.00
2019-03-27T22:51:31.206Z,102343.00
2019-03-27T22:54:05.545Z,102339.00
2019-03-27T22:56:56.436Z,102342.00
2019-03-27T22:59:28.876Z,102336.00
2019-03-27T23:02:01.205Z,102346.00
2019-03-27T23:04:33.605Z,102350.00
2019-03-27T23:07:06.235Z,102356.00
2019-03-27T23:09:38.574Z,102351.00
2019-03-27T23:12:10.852Z,102352.00
2019-03-27T23:14:43.140Z,102346.00
2019-03-27T23:17:15.578Z,102344.00
2019-03-27T23:19:51.127Z,102360.00
2019-03-27T23:22:22.063Z,102347.00
2019-03-27T23:24:55.544Z,102350.00
2019-03-27T23:27:27.954Z,102349.00
2019-03-27T23:30:00.378Z,102340.00
2019-03-27T23:32:32.796Z,102333.00
2019-03-27T23:35:05.429Z,102338.00
2019-03-27T23:37:37.775Z,102335.00
2019-03-27T23:40:10.926Z,102330.00
2019-03-27T23:42:43.562Z,102336.00
2019-03-27T23:45:15.968Z,102341.00
2019-03-27T23:47:48.314Z,102336.00
2019-03-27T23:50:20.780Z,102346.00
2019-03-27T23:52:53.261Z,102349.00
2019-03-27T23:55:25.562Z,102352.00
2019-03-27T23:57:57.842Z,102345.00
